KCYS/CYS METAR and TAF weather

Enter ICAO airport designator
Station Type Date Time Source
KCYS METAR 2018/04/20 08:53 UTC NOAA

KCYS 200853Z AUTO 13014KT 10SM CLR 01/M04 A2997 RMK AO2 SLP122 T00111039 56013


Station Type Date Time Source
KCYS Decoded METAR 2018/04/20 08:53 UTC NOAA

CHEYENNE AIRPORT, WY, United States (KCYS) 41-09N 104-48W 1865M
Apr 20, 2018 - 04:53 AM EDT / 2018.04.20 0853 UTC
Wind: from the SE (130 degrees) at 16 MPH (14 KT):0
Visibility: 10 mile(s):0
Sky conditions: clear
Temperature: 34.0 F (1.1 C)
Windchill: 23 F (-5 C):1
Dew Point: 25.0 F (-3.9 C)
Relative Humidity: 69%
Pressure (altimeter): 29.97 in. Hg (1014 hPa)
Pressure tendency: 0.04 inches (1.3 hPa) lower than three hours ago
ob: KCYS 200853Z AUTO 13014KT 10SM CLR 01/M04 A2997 RMK AO2 SLP122 T00111039 56013
cycle: 9

Station Type Date Time Source
KCYS TAF 2018/04/20 06:28 UTC NOAA

TAF KCYS 200526Z 2006/2106 14020G30KT P6SM BKN200
FM201400 15014G24KT P6SM SCT020 BKN200
FM201700 15014G24KT P6SM BKN020
FM202000 11012KT 5SM -RASN OVC012
FM202200 09012KT 3SM -SN OVC008


Example: see airport list